Aviation Digital Data Service (ADDS)

Output produced by METARs form (2032 UTC 20 August 2019)
found at http://www.aviationweather.gov/metar/data/
 
METAR text: RJCO 201100Z 15011KT 9999 FEW010 BKN090 18/18 Q1012
Conditions at: RJCO (SAPPORO (JGSDF/C, JP) observed 1100 UTC 20 August 2019
Temperature: 18.0°C (64°F)
Dewpoint: 18.0°C (64°F) [RH = 100%]
Pressure (altimeter): 29.88 inches Hg (1012.0 mb)
Winds: from the SSE (150 degrees) at 13 MPH (11 knots; 5.7 m/s)
Visibility: 6 or more miles (10+ km)
Ceiling: 9000 feet AGL
Clouds: few clouds at 1000 feet AGL
broken clouds at 9000 feet AGL
Weather: no significant weather observed at this time

METAR text: RJCO 201050Z 15012KT 9999 FEW010 BKN090 18/18 Q1012 RMK 2ST010 6AC090 A2990
Conditions at: RJCO (SAPPORO (JGSDF/C, JP) observed 1050 UTC 20 August 2019
Temperature: 18.0°C (64°F)
Dewpoint: 18.0°C (64°F) [RH = 100%]
Pressure (altimeter): 29.88 inches Hg (1012.0 mb)
Winds: from the SSE (150 degrees) at 14 MPH (12 knots; 6.2 m/s)
Visibility: 6 or more miles (10+ km)
Ceiling: 9000 feet AGL
Clouds: few clouds at 1000 feet AGL
broken clouds at 9000 feet AGL
Weather: no significant weather observed at this time

METAR text: RJCO 201000Z 14013KT 9999 FEW008 BKN013 BKN100 19/18 Q1012
Conditions at: RJCO (SAPPORO (JGSDF/C, JP) observed 1000 UTC 20 August 2019
Temperature: 19.0°C (66°F)
Dewpoint: 18.0°C (64°F) [RH = 94%]
Pressure (altimeter): 29.88 inches Hg (1012.0 mb)
Winds: from the SE (140 degrees) at 15 MPH (13 knots; 6.7 m/s)
Visibility: 6 or more miles (10+ km)
Ceiling: 1300 feet AGL
Clouds: few clouds at 800 feet AGL
broken clouds at 1300 feet AGL
broken clouds at 10000 feet AGL
Weather: no significant weather observed at this time

METAR text: RJCO 200900Z 15010KT 9999 FEW008 BKN013 BKN130 19/18 Q1012
Conditions at: RJCO (SAPPORO (JGSDF/C, JP) observed 0900 UTC 20 August 2019
Temperature: 19.0°C (66°F)
Dewpoint: 18.0°C (64°F) [RH = 94%]
Pressure (altimeter): 29.88 inches Hg (1012.0 mb)
Winds: from the SSE (150 degrees) at 12 MPH (10 knots; 5.1 m/s)
Visibility: 6 or more miles (10+ km)
Ceiling: 1300 feet AGL
Clouds: few clouds at 800 feet AGL
broken clouds at 1300 feet AGL
broken clouds at 13000 feet AGL
Weather: no significant weather observed at this time

METAR text: RJCO 200821Z 16011KT 9999 FEW005 BKN015 BKN120 19/19 Q1012 RERA RMK 1ST005 6CU015 6AC120 A2988
Conditions at: RJCO (SAPPORO (JGSDF/C, JP) observed 0821 UTC 20 August 2019
Temperature: 19.0°C (66°F)
Dewpoint: 19.0°C (66°F) [RH = 100%]
Pressure (altimeter): 29.88 inches Hg (1012.0 mb)
Winds: from the SSE (160 degrees) at 13 MPH (11 knots; 5.7 m/s)
Visibility: 6 or more miles (10+ km)
Ceiling: 1500 feet AGL
Clouds: few clouds at 500 feet AGL
broken clouds at 1500 feet AGL
broken clouds at 12000 feet AGL
Weather: no significant weather observed at this time

METAR text: RJCO 200800Z 13018G28KT 9999 -SHRA FEW005 BKN030 BKN100 18/18 Q1011
Conditions at: RJCO (SAPPORO (JGSDF/C, JP) observed 0800 UTC 20 August 2019
Temperature: 18.0°C (64°F)
Dewpoint: 18.0°C (64°F) [RH = 100%]
Pressure (altimeter): 29.85 inches Hg (1011.0 mb)
Winds: from the SE (130 degrees) at 21 MPH (18 knots; 9.3 m/s)
gusting to 32 MPH (28 knots; 14.4 m/s)
Visibility: 6 or more miles (10+ km)
Ceiling: 3000 feet AGL
Clouds: few clouds at 500 feet AGL
broken clouds at 3000 feet AGL
broken clouds at 10000 feet AGL
Weather: -SHRA  (light rain showers)

METAR text: RJCO 200700Z 08007KT 4000 SHRA BR FEW006 BKN015 BKN030 18/18 Q1013
Conditions at: RJCO (SAPPORO (JGSDF/C, JP) observed 0700 UTC 20 August 2019
Temperature: 18.0°C (64°F)
Dewpoint: 18.0°C (64°F) [RH = 100%]
Pressure (altimeter): 29.91 inches Hg (1013.0 mb)
Winds: from the E (80 degrees) at 8 MPH (7 knots; 3.6 m/s)
Visibility: 2.49 miles (4.01 km)
Ceiling: 1500 feet AGL
Clouds: few clouds at 600 feet AGL
broken clouds at 1500 feet AGL
broken clouds at 3000 feet AGL
Weather: SHRA BR  (rain showers, mist)

METAR text: RJCO 200600Z 12005KT 4000 SHRA BR FEW006 BKN012 BKN030 19/19 Q1012
Conditions at: RJCO (SAPPORO (JGSDF/C, JP) observed 0600 UTC 20 August 2019
Temperature: 19.0°C (66°F)
Dewpoint: 19.0°C (66°F) [RH = 100%]
Pressure (altimeter): 29.88 inches Hg (1012.0 mb)
Winds: from the ESE (120 degrees) at 6 MPH (5 knots; 2.6 m/s)
Visibility: 2.49 miles (4.01 km)
Ceiling: 1200 feet AGL
Clouds: few clouds at 600 feet AGL
broken clouds at 1200 feet AGL
broken clouds at 3000 feet AGL
Weather: SHRA BR  (rain showers, mist)

METAR text: RJCO 200551Z 12005KT 4000 SHRA BR FEW006 BKN012 BKN030 19/19 Q1012 RMK 2ST006 5ST012 7CU030 A2990
Conditions at: RJCO (SAPPORO (JGSDF/C, JP) observed 0551 UTC 20 August 2019
Temperature: 19.0°C (66°F)
Dewpoint: 19.0°C (66°F) [RH = 100%]
Pressure (altimeter): 29.88 inches Hg (1012.0 mb)
Winds: from the ESE (120 degrees) at 6 MPH (5 knots; 2.6 m/s)
Visibility: 2.49 miles (4.01 km)
Ceiling: 1200 feet AGL
Clouds: few clouds at 600 feet AGL
broken clouds at 1200 feet AGL
broken clouds at 3000 feet AGL
Weather: SHRA BR  (rain showers, mist)

METAR text: RJCO 200500Z 13012KT 5000 -SHRA FEW006 SCT012 BKN030 19/19 Q1012
Conditions at: RJCO (SAPPORO (JGSDF/C, JP) observed 0500 UTC 20 August 2019
Temperature: 19.0°C (66°F)
Dewpoint: 19.0°C (66°F) [RH = 100%]
Pressure (altimeter): 29.88 inches Hg (1012.0 mb)
Winds: from the SE (130 degrees) at 14 MPH (12 knots; 6.2 m/s)
Visibility: 3 miles ( 5 km)
Ceiling: 3000 feet AGL
Clouds: few clouds at 600 feet AGL
scattered clouds at 1200 feet AGL
broken clouds at 3000 feet AGL
Weather: -SHRA  (light rain showers)

METAR text: RJCO 200400Z 14014KT 9999 -SHRA FEW006 SCT015 BKN030 19/18 Q1012
Conditions at: RJCO (SAPPORO (JGSDF/C, JP) observed 0400 UTC 20 August 2019
Temperature: 19.0°C (66°F)
Dewpoint: 18.0°C (64°F) [RH = 94%]
Pressure (altimeter): 29.88 inches Hg (1012.0 mb)
Winds: from the SE (140 degrees) at 16 MPH (14 knots; 7.2 m/s)
Visibility: 6 or more miles (10+ km)
Ceiling: 3000 feet AGL
Clouds: few clouds at 600 feet AGL
scattered clouds at 1500 feet AGL
broken clouds at 3000 feet AGL
Weather: -SHRA  (light rain showers)

METAR text: RJCO 200340Z 14015KT 8000 -SHRA FEW006 SCT015 BKN030 19/18 Q1012 RMK 1ST006 3ST015 6CU030 A2990
Conditions at: RJCO (SAPPORO (JGSDF/C, JP) observed 0340 UTC 20 August 2019
Temperature: 19.0°C (66°F)
Dewpoint: 18.0°C (64°F) [RH = 94%]
Pressure (altimeter): 29.88 inches Hg (1012.0 mb)
Winds: from the SE (140 degrees) at 17 MPH (15 knots; 7.7 m/s)
Visibility: 5 miles ( 8 km)
Ceiling: 3000 feet AGL
Clouds: few clouds at 600 feet AGL
scattered clouds at 1500 feet AGL
broken clouds at 3000 feet AGL
Weather: -SHRA  (light rain showers)

METAR text: RJCO 200325Z 15013KT 5000 SHRA FEW005 BKN015 BKN025 19/18 Q1013 RMK 2ST005 5ST015 6CU025 A2992
Conditions at: RJCO (SAPPORO (JGSDF/C, JP) observed 0325 UTC 20 August 2019
Temperature: 19.0°C (66°F)
Dewpoint: 18.0°C (64°F) [RH = 94%]
Pressure (altimeter): 29.91 inches Hg (1013.0 mb)
Winds: from the SSE (150 degrees) at 15 MPH (13 knots; 6.7 m/s)
Visibility: 3 miles ( 5 km)
Ceiling: 1500 feet AGL
Clouds: few clouds at 500 feet AGL
broken clouds at 1500 feet AGL
broken clouds at 2500 feet AGL
Weather: SHRA  (rain showers)

METAR text: RJCO 200312Z 15013KT 9999 SHRA SCT015 BKN025 BKN030 20/17 Q1013 RMK 3ST015 5CU025 6CU030 A2992
Conditions at: RJCO (SAPPORO (JGSDF/C, JP) observed 0312 UTC 20 August 2019
Temperature: 20.0°C (68°F)
Dewpoint: 17.0°C (63°F) [RH = 83%]
Pressure (altimeter): 29.91 inches Hg (1013.0 mb)
Winds: from the SSE (150 degrees) at 15 MPH (13 knots; 6.7 m/s)
Visibility: 6 or more miles (10+ km)
Ceiling: 2500 feet AGL
Clouds: scattered clouds at 1500 feet AGL
broken clouds at 2500 feet AGL
broken clouds at 3000 feet AGL
Weather: SHRA  (rain showers)

METAR text: RJCO 200300Z 14016KT 9999 FEW006 BKN025 BKN070 20/17 Q1013
Conditions at: RJCO (SAPPORO (JGSDF/C, JP) observed 0300 UTC 20 August 2019
Temperature: 20.0°C (68°F)
Dewpoint: 17.0°C (63°F) [RH = 83%]
Pressure (altimeter): 29.91 inches Hg (1013.0 mb)
Winds: from the SE (140 degrees) at 18 MPH (16 knots; 8.2 m/s)
Visibility: 6 or more miles (10+ km)
Ceiling: 2500 feet AGL
Clouds: few clouds at 600 feet AGL
broken clouds at 2500 feet AGL
broken clouds at 7000 feet AGL
Weather: no significant weather observed at this time

METAR text: RJCO 200214Z 15014KT 9999 FEW008 BKN025 BKN070 21/17 Q1013 RMK 1ST008 5CU025 7AC070 A2991
Conditions at: RJCO (SAPPORO (JGSDF/C, JP) observed 0214 UTC 20 August 2019
Temperature: 21.0°C (70°F)
Dewpoint: 17.0°C (63°F) [RH = 78%]
Pressure (altimeter): 29.91 inches Hg (1013.0 mb)
Winds: from the SSE (150 degrees) at 16 MPH (14 knots; 7.2 m/s)
Visibility: 6 or more miles (10+ km)
Ceiling: 2500 feet AGL
Clouds: few clouds at 800 feet AGL
broken clouds at 2500 feet AGL
broken clouds at 7000 feet AGL
Weather: no significant weather observed at this time

METAR text: RJCO 200200Z 15016KT 9999 FEW008 BKN070 BKN170 21/17 Q1012
Conditions at: RJCO (SAPPORO (JGSDF/C, JP) observed 0200 UTC 20 August 2019
Temperature: 21.0°C (70°F)
Dewpoint: 17.0°C (63°F) [RH = 78%]
Pressure (altimeter): 29.88 inches Hg (1012.0 mb)
Winds: from the SSE (150 degrees) at 18 MPH (16 knots; 8.2 m/s)
Visibility: 6 or more miles (10+ km)
Ceiling: 7000 feet AGL
Clouds: few clouds at 800 feet AGL
broken clouds at 7000 feet AGL
broken clouds at 17000 feet AGL
Weather: no significant weather observed at this time

METAR text: RJCO 200100Z 16018KT 9999 FEW010 SCT100 BKN180 21/18 Q1012
Conditions at: RJCO (SAPPORO (JGSDF/C, JP) observed 0100 UTC 20 August 2019
Temperature: 21.0°C (70°F)
Dewpoint: 18.0°C (64°F) [RH = 83%]
Pressure (altimeter): 29.88 inches Hg (1012.0 mb)
Winds: from the SSE (160 degrees) at 21 MPH (18 knots; 9.3 m/s)
Visibility: 6 or more miles (10+ km)
Ceiling: 18000 feet AGL
Clouds: few clouds at 1000 feet AGL
scattered clouds at 10000 feet AGL
broken clouds at 18000 feet AGL
Weather: no significant weather observed at this time

METAR text: RJCO 200000Z 15015KT 9999 FEW008 SCT090 BKN170 21/17 Q1012
Conditions at: RJCO (SAPPORO (JGSDF/C, JP) observed 0000 UTC 20 August 2019
Temperature: 21.0°C (70°F)
Dewpoint: 17.0°C (63°F) [RH = 78%]
Pressure (altimeter): 29.88 inches Hg (1012.0 mb)
Winds: from the SSE (150 degrees) at 17 MPH (15 knots; 7.7 m/s)
Visibility: 6 or more miles (10+ km)
Ceiling: 17000 feet AGL
Clouds: few clouds at 800 feet AGL
scattered clouds at 9000 feet AGL
broken clouds at 17000 feet AGL
Weather: no significant weather observed at this time

METAR text: RJCO 192300Z 15015KT 9999 FEW008 BKN150 20/18 Q1013
Conditions at: RJCO (SAPPORO (JGSDF/C, JP) observed 2300 UTC 19 August 2019
Temperature: 20.0°C (68°F)
Dewpoint: 18.0°C (64°F) [RH = 88%]
Pressure (altimeter): 29.91 inches Hg (1013.0 mb)
Winds: from the SSE (150 degrees) at 17 MPH (15 knots; 7.7 m/s)
Visibility: 6 or more miles (10+ km)
Ceiling: 15000 feet AGL
Clouds: few clouds at 800 feet AGL
broken clouds at 15000 feet AGL
Weather: no significant weather observed at this time

METAR text: RJCO 192200Z 15017KT 9999 FEW007 SCT080 BKN180 20/17 Q1013
Conditions at: RJCO (SAPPORO (JGSDF/C, JP) observed 2200 UTC 19 August 2019
Temperature: 20.0°C (68°F)
Dewpoint: 17.0°C (63°F) [RH = 83%]
Pressure (altimeter): 29.91 inches Hg (1013.0 mb)
Winds: from the SSE (150 degrees) at 20 MPH (17 knots; 8.7 m/s)
Visibility: 6 or more miles (10+ km)
Ceiling: 18000 feet AGL
Clouds: few clouds at 700 feet AGL
scattered clouds at 8000 feet AGL
broken clouds at 18000 feet AGL
Weather: no significant weather observed at this time

METAR text: RJCO 192100Z 15014KT 9999 FEW007 BKN080 BKN180 20/17 Q1014
Conditions at: RJCO (SAPPORO (JGSDF/C, JP) observed 2100 UTC 19 August 2019
Temperature: 20.0°C (68°F)
Dewpoint: 17.0°C (63°F) [RH = 83%]
Pressure (altimeter): 29.94 inches Hg (1014.0 mb)
Winds: from the SSE (150 degrees) at 16 MPH (14 knots; 7.2 m/s)
Visibility: 6 or more miles (10+ km)
Ceiling: 8000 feet AGL
Clouds: few clouds at 700 feet AGL
broken clouds at 8000 feet AGL
broken clouds at 18000 feet AGL
Weather: no significant weather observed at this time

METAR text: RJCO 191100Z 14018KT 9999 FEW010 BKN230 20/18 Q1014
Conditions at: RJCO (SAPPORO (JGSDF/C, JP) observed 1100 UTC 19 August 2019
Temperature: 20.0°C (68°F)
Dewpoint: 18.0°C (64°F) [RH = 88%]
Pressure (altimeter): 29.94 inches Hg (1014.0 mb)
Winds: from the SE (140 degrees) at 21 MPH (18 knots; 9.3 m/s)
Visibility: 6 or more miles (10+ km)
Ceiling: 23000 feet AGL
Clouds: few clouds at 1000 feet AGL
broken clouds at 23000 feet AGL
Weather: no significant weather observed at this time

METAR text: RJCO 191000Z 14016KT 9999 FEW015 BKN230 21/18 Q1013
Conditions at: RJCO (SAPPORO (JGSDF/C, JP) observed 1000 UTC 19 August 2019
Temperature: 21.0°C (70°F)
Dewpoint: 18.0°C (64°F) [RH = 83%]
Pressure (altimeter): 29.91 inches Hg (1013.0 mb)
Winds: from the SE (140 degrees) at 18 MPH (16 knots; 8.2 m/s)
Visibility: 6 or more miles (10+ km)
Ceiling: 23000 feet AGL
Clouds: few clouds at 1500 feet AGL
broken clouds at 23000 feet AGL
Weather: no significant weather observed at this time

METAR text: RJCO 190900Z 14015KT 9999 FEW015 SCT160 BKN230 22/18 Q1013
Conditions at: RJCO (SAPPORO (JGSDF/C, JP) observed 0900 UTC 19 August 2019
Temperature: 22.0°C (72°F)
Dewpoint: 18.0°C (64°F) [RH = 78%]
Pressure (altimeter): 29.91 inches Hg (1013.0 mb)
Winds: from the SE (140 degrees) at 17 MPH (15 knots; 7.7 m/s)
Visibility: 6 or more miles (10+ km)
Ceiling: 23000 feet AGL
Clouds: few clouds at 1500 feet AGL
scattered clouds at 16000 feet AGL
broken clouds at 23000 feet AGL
Weather: no significant weather observed at this time